Página principal
METAR-TAF:

METAR-TAF

Aeroportos :

Ardmore, Oklahoma, Estados Unidos

latitude: 34-18-11N, longitude: 097-01-10W, altura: 232 m

Observação actual do tempo

O boletim foi feito há 27 minutos, às 09:15 UTC
Vento 5 kt de sul
Temperatura 10°C
Humidade 71%
Pressão 1017 hPa
Visibilidade: 16.1 km
Céu limpo

METAR: KADM 120915Z AUTO 19005KT 10SM CLR 10/05 A3002 RMK AO2 T00950053

Hora: 03:42 (09:42 UTC)


TAF: em falta

Observações e previsões do tempo de mais de 4000 aeroportos (mensagens METAR e TAF).

As estações disponíveis são os pontos amarelos e vermelhos sobre o mapa.

Mova o rato sobre o mapa para ver o nome da estação.

Depois clique no ponto para visualizar as observações e previsões meteorológicas.

Para alterar o mapa : clique nos botões verdes com uma cruz preta para aumentar o zoom; no botão verde com uma pitada de zoom; ou nas setas verdes para mapas adjacentes.


METAR-TAF: